Time;durP1;ratioP1;P1;durP2;ratioP2;P2;SDS_P1;SDS_P2;PMS_P1;PMS_P2;Temp;Humidity;BMP_temperature;BMP_pressure;BME280_temperature;BME280_humidity;BME280_pressure;Samples;Min_cycle;Max_cycle;Signal;HPM_P1;HPM_P2
2022/08/04 00:04:46;;;;;;;11.80;7.12;;;;;;;23.38;60.81;100598.55;3576261;81;99426;-83
2022/08/04 00:09:52;;;;;;;13.25;9.25;;;;;;;23.34;60.89;100599.30;3599844;81;98970;-83
2022/08/04 00:14:58;;;;;;;13.25;9.38;;;;;;;23.25;60.73;100594.41;3589772;81;99026;-83
2022/08/04 00:20:02;;;;;;;13.78;9.83;;;;;;;23.19;60.71;100600.46;3603648;81;98945;-82
2022/08/04 00:25:05;;;;;;;14.38;10.30;;;;;;;23.16;60.82;100601.34;3601146;81;98782;-83
2022/08/04 00:30:07;;;;;;;13.18;9.30;;;;;;;23.09;61.05;100602.22;3594368;81;99216;-83
2022/08/04 00:35:14;;;;;;;14.85;9.50;;;;;;;23.04;60.87;100608.45;3592464;81;99040;-82
2022/08/04 00:40:38;;;;;;;14.20;8.95;;;;;;;22.97;61.20;100607.28;3595542;79;98921;-82
2022/08/04 00:46:19;;;;;;;13.65;8.73;;;;;;;22.91;61.68;100604.30;3678167;79;98132;-82
2022/08/04 00:51:31;;;;;;;11.38;7.78;;;;;;;22.85;61.40;100600.51;3672063;79;99094;-83
2022/08/04 00:57:14;;;;;;;11.08;7.90;;;;;;;22.81;61.83;100596.24;3668660;79;30386;-82
2022/08/04 01:02:38;;;;;;;12.30;8.23;;;;;;;22.76;61.54;100603.23;3672233;79;98754;-83
2022/08/04 01:08:21;;;;;;;14.70;8.15;;;;;;;22.68;61.53;100598.33;3632748;79;99090;-82
2022/08/04 01:13:48;;;;;;;11.43;8.18;;;;;;;22.63;61.88;100600.31;3672295;79;98800;-82
2022/08/04 01:19:16;;;;;;;11.03;7.30;;;;;;;22.58;62.00;100597.48;3674158;79;98902;-83
2022/08/04 01:24:41;;;;;;;11.83;7.80;;;;;;;22.54;62.43;100596.81;3668062;79;98818;-84
2022/08/04 01:29:55;;;;;;;10.55;7.87;;;;;;;22.46;62.72;100594.07;3625939;80;99049;-82
2022/08/04 01:35:01;;;;;;;14.55;7.65;;;;;;;22.45;63.02;100596.72;3678012;79;98935;-81
2022/08/04 01:40:06;;;;;;;11.05;8.35;;;;;;;22.39;62.90;100595.70;3670525;78;99076;-82
2022/08/04 01:45:11;;;;;;;11.00;8.00;;;;;;;22.34;63.33;100593.46;3649275;78;99088;-81
2022/08/04 01:50:13;;;;;;;14.35;8.80;;;;;;;22.29;63.39;100592.63;3638637;79;98705;-83
2022/08/04 01:55:16;;;;;;;11.68;8.33;;;;;;;22.25;63.25;100591.20;3644524;79;98802;-82
2022/08/04 02:00:23;;;;;;;11.35;8.60;;;;;;;22.23;63.67;100592.28;3654298;78;99156;-83
2022/08/04 02:05:26;;;;;;;10.95;8.15;;;;;;;22.19;64.01;100587.40;3636917;79;99005;-82
2022/08/04 02:10:35;;;;;;;12.43;8.28;;;;;;;22.15;64.08;100587.52;3645901;79;98981;-82
2022/08/04 02:15:59;;;;;;;12.13;9.03;;;;;;;22.12;64.24;100580.64;3638618;79;99380;-84
2022/08/04 02:21:01;;;;;;;12.63;8.25;;;;;;;22.09;64.38;100585.13;3636489;79;99313;-83
2022/08/04 02:26:11;;;;;;;12.47;8.88;;;;;;;22.05;64.41;100586.46;3639153;79;33320;-83
2022/08/04 02:31:44;;;;;;;12.18;8.33;;;;;;;22.00;64.61;100581.41;3636658;79;98977;-82
2022/08/04 02:36:47;;;;;;;12.40;9.20;;;;;;;21.97;64.93;100571.12;3642391;79;98754;-83
2022/08/04 02:41:51;;;;;;;12.18;9.48;;;;;;;21.90;64.90;100568.56;3655775;79;99046;-83
2022/08/04 02:46:54;;;;;;;12.90;9.23;;;;;;;21.87;65.13;100568.84;3692511;78;99059;-83
2022/08/04 02:51:57;;;;;;;12.23;9.10;;;;;;;21.79;65.15;100566.73;3691053;78;99077;-82
2022/08/04 02:57:00;;;;;;;12.33;9.10;;;;;;;21.74;65.10;100564.48;3699012;78;99067;-82
2022/08/04 03:02:01;;;;;;;13.20;8.78;;;;;;;21.66;65.07;100561.70;3660210;78;99158;-82
2022/08/04 03:07:27;;;;;;;14.03;9.70;;;;;;;21.64;65.63;100559.97;3688511;78;98852;-82
2022/08/04 03:12:54;;;;;;;14.30;9.85;;;;;;;21.60;65.18;100564.29;3682181;78;98870;-82
2022/08/04 03:18:01;;;;;;;13.15;9.70;;;;;;;21.54;65.45;100571.69;3688213;78;98955;-83
2022/08/04 03:23:39;;;;;;;13.78;9.63;;;;;;;21.50;65.80;100568.20;3677376;78;99273;-83
2022/08/04 03:29:03;;;;;;;15.55;9.95;;;;;;;21.45;65.95;100570.77;3685815;78;98985;-83
2022/08/04 03:35:02;;;;;;;12.98;9.80;;;;;;;21.38;66.12;100573.80;3675469;78;98948;-82
2022/08/04 03:40:31;;;;;;;15.03;9.97;;;;;;;21.31;65.94;100573.38;3630141;80;99056;-83
2022/08/04 03:45:52;;;;;;;12.50;9.43;;;;;;;21.18;65.83;100566.99;3660803;78;99006;-82
2022/08/04 03:57:12;;;;;;;13.55;10.28;;;;;;;21.19;66.72;100577.59;3669016;79;99136;-83
2022/08/04 04:02:37;;;;;;;15.50;10.58;;;;;;;21.18;66.36;100577.39;3678390;79;98850;-83
2022/08/04 04:08:01;;;;;;;14.10;10.15;;;;;;;21.11;66.32;100580.41;3696512;79;98771;-82
2022/08/04 04:13:50;;;;;;;14.73;10.13;;;;;;;21.02;66.52;100585.26;3679903;78;99102;-82
2022/08/04 04:19:18;;;;;;;14.10;10.50;;;;;;;20.97;66.50;100580.20;3683665;79;98976;-82
2022/08/04 04:24:36;;;;;;;14.73;10.65;;;;;;;20.95;66.85;100585.47;3693537;79;98983;-82
2022/08/04 04:30:05;;;;;;;16.40;11.10;;;;;;;20.88;66.63;100581.42;3682886;78;99137;-82
2022/08/04 04:35:20;;;;;;;15.75;11.88;;;;;;;20.91;67.02;100585.38;3685891;79;99110;-82
2022/08/04 04:40:30;;;;;;;13.10;9.67;;;;;;;20.92;67.18;100586.34;3673221;78;99204;-83
2022/08/04 04:45:53;;;;;;;14.43;10.45;;;;;;;20.91;67.18;100586.18;3571653;81;99081;-83
2022/08/04 04:51:17;;;;;;;14.50;10.13;;;;;;;20.94;67.13;100596.50;3570726;80;99171;-82
2022/08/04 04:56:42;;;;;;;12.78;9.90;;;;;;;20.95;67.01;100602.27;3540102;82;33258;-82
2022/08/04 05:02:17;;;;;;;14.83;11.15;;;;;;;20.97;67.08;100601.20;3641598;78;98748;-82
2022/08/04 05:07:29;;;;;;;14.63;9.55;;;;;;;21.02;67.14;100595.66;3674839;78;99045;-80
2022/08/04 05:13:07;;;;;;;13.10;9.88;;;;;;;21.07;66.92;100602.91;3690708;78;98974;-82
2022/08/04 05:18:13;;;;;;;18.32;10.55;;;;;;;21.13;66.89;100608.73;3692791;78;99252;-81
2022/08/04 05:23:18;;;;;;;15.80;10.78;;;;;;;21.21;66.66;100601.08;3691190;78;99227;-81
2022/08/04 05:28:49;;;;;;;24.13;10.90;;;;;;;21.31;66.70;100600.61;3692657;78;99652;-81
2022/08/04 05:34:10;;;;;;;13.25;10.15;;;;;;;21.49;66.72;100596.66;3554769;78;99124;-80
2022/08/04 05:39:17;;;;;;;12.30;9.80;;;;;;;21.84;66.33;100599.16;3688699;78;99140;-82
2022/08/04 05:44:21;;;;;;;15.68;9.43;;;;;;;22.37;66.09;100607.20;3663915;78;98688;-81
2022/08/04 05:49:24;;;;;;;15.20;9.75;;;;;;;23.02;65.13;100603.89;3671877;79;99260;-81
2022/08/04 05:54:28;;;;;;;15.20;9.63;;;;;;;23.75;63.42;100608.09;3663157;79;98747;-82
2022/08/04 05:59:31;;;;;;;11.97;8.13;;;;;;;24.51;61.71;100610.96;3645744;79;99317;-81
2022/08/04 06:04:37;;;;;;;13.43;8.35;;;;;;;25.26;59.89;100612.27;3664176;79;98965;-81
2022/08/04 06:09:40;;;;;;;13.08;8.75;;;;;;;26.01;58.17;100607.48;3678871;79;98932;-81
2022/08/04 06:14:44;;;;;;;14.28;7.55;;;;;;;26.70;56.19;100614.42;3655874;79;98590;-80
2022/08/04 06:19:48;;;;;;;16.45;7.92;;;;;;;27.28;54.35;100622.23;3672628;79;98606;-82
2022/08/04 06:24:51;;;;;;;14.15;6.42;;;;;;;27.88;52.66;100620.48;3669715;79;98914;-80
2022/08/04 06:29:53;;;;;;;15.28;7.45;;;;;;;28.29;51.70;100622.11;3659635;79;98698;-84
2022/08/04 06:34:58;;;;;;;13.32;7.58;;;;;;;28.84;50.03;100615.80;3639767;79;99453;-80
2022/08/04 06:40:01;;;;;;;;;;;;;;;29.23;47.80;100617.02;3668972;79;99374;-82
2022/08/04 06:45:03;;;;;;;10.95;7.22;;;;;;;29.69;45.84;100611.28;3687218;78;84367;-81
2022/08/04 06:50:06;;;;;;;15.65;6.70;;;;;;;29.89;45.71;100611.95;3708072;78;99062;-81
2022/08/04 06:55:08;;;;;;;12.55;6.95;;;;;;;30.00;45.66;100613.45;3696208;78;98811;-81
2022/08/04 07:00:15;;;;;;;18.25;6.92;;;;;;;30.24;44.59;100618.12;3686146;78;98957;-82
2022/08/04 07:05:19;;;;;;;10.45;6.05;;;;;;;30.39;43.65;100618.73;3542652;81;99064;-82
2022/08/04 07:10:22;;;;;;;10.63;6.63;;;;;;;30.21;43.69;100614.91;3601242;80;99033;-82
2022/08/04 07:15:25;;;;;;;10.40;5.90;;;;;;;30.26;43.30;100618.42;3626189;80;98938;-80
2022/08/04 07:20:28;;;;;;;10.38;6.40;;;;;;;30.22;42.84;100614.24;3615143;80;98998;-83
2022/08/04 07:25:30;;;;;;;16.42;6.80;;;;;;;30.18;42.71;100615.15;3605218;80;98865;-80
2022/08/04 07:30:32;;;;;;;15.93;6.85;;;;;;;30.11;42.39;100620.64;3607194;80;98993;-81
2022/08/04 07:35:34;;;;;;;11.88;6.50;;;;;;;30.02;42.47;100615.78;3622779;80;98943;-82
2022/08/04 07:40:35;;;;;;;11.00;5.97;;;;;;;29.92;42.35;100614.42;3620711;80;98992;-83
2022/08/04 07:45:37;;;;;;;10.65;6.40;;;;;;;29.83;41.89;100610.34;3626817;80;99058;-81
2022/08/04 07:50:42;;;;;;;12.07;6.08;;;;;;;29.85;41.77;100610.64;3621710;80;98755;-81
2022/08/04 07:55:46;;;;;;;13.95;5.95;;;;;;;29.85;41.66;100604.96;3626236;80;98740;-82
2022/08/04 08:00:47;;;;;;;9.70;5.90;;;;;;;29.96;41.98;100610.05;3560356;81;99046;-82
2022/08/04 08:05:48;;;;;;;13.85;6.58;;;;;;;30.07;41.60;100601.61;3631274;80;98784;-83
2022/08/04 08:10:50;;;;;;;8.60;5.25;;;;;;;30.15;41.45;100597.06;3690271;78;98906;-82
2022/08/04 08:15:52;;;;;;;8.95;5.10;;;;;;;30.31;41.05;100602.69;3693003;78;98814;-86
2022/08/04 08:20:54;;;;;;;9.28;5.00;;;;;;;30.63;40.89;100598.45;3685025;78;98830;-83
2022/08/04 08:25:56;;;;;;;13.13;5.17;;;;;;;31.21;40.81;100588.45;3696492;78;26066;-83
2022/08/04 08:30:57;;;;;;;9.13;3.70;;;;;;;31.98;40.93;100589.13;3684446;78;99114;-82
2022/08/04 08:36:03;;;;;;;7.05;4.15;;;;;;;32.82;39.33;100589.14;3686833;78;98866;-82
2022/08/04 08:41:56;;;;;;;7.33;4.35;;;;;;;33.42;37.80;100589.42;3686835;78;99045;-80
2022/08/04 08:47:34;;;;;;;8.65;4.70;;;;;;;34.19;37.18;100592.21;3705203;78;98811;-80
2022/08/04 08:52:59;;;;;;;7.70;4.87;;;;;;;34.85;35.97;100598.59;3673662;78;98783;-83
2022/08/04 08:58:14;;;;;;;7.58;4.22;;;;;;;35.81;35.33;100585.30;3681790;78;98821;-82
2022/08/04 09:03:47;;;;;;;7.60;4.53;;;;;;;35.98;34.03;100593.70;3691938;78;98922;-82
2022/08/04 09:09:14;;;;;;;7.30;4.60;;;;;;;36.85;33.19;100591.06;3698945;78;98784;-81
2022/08/04 09:14:29;;;;;;;7.33;4.40;;;;;;;37.53;32.34;100580.45;3687781;80;98357;-81
2022/08/04 09:19:44;;;;;;;7.15;4.53;;;;;;;38.14;32.29;100589.70;3698203;78;98655;-82
2022/08/04 09:25:10;;;;;;;7.00;4.72;;;;;;;38.65;30.27;100593.50;3691218;78;98631;-81
2022/08/04 09:30:16;;;;;;;6.28;4.20;;;;;;;38.80;30.14;100587.80;3695900;78;98832;-81
2022/08/04 09:35:49;;;;;;;7.22;3.90;;;;;;;39.36;29.61;100575.34;3670210;78;98847;-82
2022/08/04 09:41:32;;;;;;;10.35;4.05;;;;;;;39.91;28.31;100582.90;3689945;78;98734;-81
2022/08/04 09:46:47;;;;;;;9.10;4.62;;;;;;;40.07;28.01;100574.98;3534272;80;99021;-83
2022/08/04 09:51:53;;;;;;;8.53;4.65;;;;;;;40.61;27.98;100568.55;3626061;79;98797;-81
2022/08/04 09:57:18;;;;;;;7.78;4.83;;;;;;;40.86;27.43;100571.61;3657245;80;98856;-80
2022/08/04 10:02:21;;;;;;;8.10;4.80;;;;;;;41.46;26.89;100562.63;3666316;79;98911;-81
2022/08/04 10:07:40;;;;;;;7.22;4.33;;;;;;;41.68;26.15;100571.05;3668957;79;98926;-85
2022/08/04 10:13:22;;;;;;;8.93;4.72;;;;;;;41.54;25.90;100570.58;3646605;79;98522;-81
2022/08/04 10:18:38;;;;;;;14.20;5.03;;;;;;;41.68;26.01;100558.03;3666984;78;98600;-83
2022/08/04 10:24:06;;;;;;;8.15;4.80;;;;;;;42.06;25.38;100552.69;3659518;79;99022;-82
2022/08/04 10:29:18;;;;;;;6.87;4.70;;;;;;;42.30;25.33;100548.30;3653297;79;98785;-82
2022/08/04 10:34:27;;;;;;;6.72;4.87;;;;;;;42.65;24.71;100557.77;3646649;79;98928;-81
2022/08/04 10:45:23;;;;;;;5.62;4.70;;;;;;;43.07;24.09;100546.77;3648666;80;99195;-86
2022/08/04 10:50:26;;;;;;;7.97;4.97;;;;;;;42.31;24.64;100538.92;3675834;79;98508;-82
2022/08/04 10:55:51;;;;;;;7.97;5.25;;;;;;;41.83;24.79;100535.55;3692994;78;98653;-83
2022/08/04 11:00:56;;;;;;;6.42;5.70;;;;;;;42.12;24.08;100522.13;3677766;78;98689;-83
2022/08/04 11:06:02;;;;;;;8.63;4.75;;;;;;;41.93;24.22;100507.50;3694421;78;97901;-84
2022/08/04 11:11:27;;;;;;;7.30;4.67;;;;;;;41.99;24.38;100530.38;3683652;78;98878;-82
2022/08/04 11:16:45;;;;;;;7.20;5.20;;;;;;;41.37;23.83;100531.51;3683969;79;99121;-83
2022/08/04 11:22:00;;;;;;;7.97;5.72;;;;;;;41.12;24.56;100523.47;3690855;78;98733;-82
2022/08/04 11:27:07;;;;;;;9.25;5.53;;;;;;;40.99;24.20;100522.31;3686250;78;98803;-83
2022/08/04 11:32:16;;;;;;;8.58;5.75;;;;;;;41.26;24.53;100517.50;3683035;78;98810;-82
2022/08/04 11:37:25;;;;;;;8.70;5.78;;;;;;;41.27;24.53;100519.03;3687898;78;98679;-87
2022/08/04 11:42:30;;;;;;;7.83;5.25;;;;;;;41.49;24.26;100510.89;3669984;78;98674;-82
2022/08/04 11:47:48;;;;;;;8.10;5.37;;;;;;;41.04;24.36;100516.20;3663081;78;98973;-82
2022/08/04 11:52:53;;;;;;;8.53;5.25;;;;;;;40.86;24.74;100508.09;3659289;79;99101;-82
2022/08/04 11:57:55;;;;;;;7.47;5.08;;;;;;;40.74;24.68;100511.34;3672567;79;98731;-85
2022/08/04 12:03:33;;;;;;;;;;;;;;;40.99;24.54;100507.09;3666663;79;98879;-83
2022/08/04 12:09:14;;;;;;;9.13;5.20;;;;;;;40.99;24.44;100499.88;3650932;79;25882;-83
2022/08/04 12:14:55;;;;;;;7.22;4.80;;;;;;;40.77;24.90;100504.41;3631825;79;98935;-83
2022/08/04 12:20:04;;;;;;;7.28;5.05;;;;;;;40.30;24.75;100501.52;3661778;79;98597;-82
2022/08/04 12:25:09;;;;;;;9.30;5.30;;;;;;;40.27;25.39;100499.03;3671691;79;98653;-80
2022/08/04 12:30:11;;;;;;;12.85;5.28;;;;;;;40.67;24.83;100496.95;3656568;79;98621;-84
2022/08/04 12:35:19;;;;;;;8.90;5.20;;;;;;;40.54;24.22;100494.30;3625690;80;98962;-82
2022/08/04 12:40:25;;;;;;;7.83;4.95;;;;;;;40.07;25.35;100492.14;3655554;79;98758;-81
2022/08/04 12:45:27;;;;;;;6.28;5.15;;;;;;;40.11;25.52;100488.86;3663861;79;98856;-83
2022/08/04 12:50:31;;;;;;;7.78;5.30;;;;;;;40.10;25.09;100485.89;3676115;78;98906;-84
2022/08/04 12:55:34;;;;;;;7.33;6.03;;;;;;;39.63;25.37;100489.41;3675258;78;98644;-84
2022/08/04 13:00:36;;;;;;;7.45;5.85;;;;;;;39.72;25.91;100488.84;3670564;79;98756;-81
2022/08/04 13:05:40;;;;;;;11.28;5.78;;;;;;;39.70;25.63;100471.34;3682646;79;98809;-83
2022/08/04 13:10:48;;;;;;;9.18;6.60;;;;;;;39.87;25.21;100461.44;3680175;79;98917;-83
2022/08/04 13:15:59;;;;;;;7.50;5.65;;;;;;;39.36;25.64;100465.23;3681128;79;98901;-84
2022/08/04 13:21:21;;;;;;;11.12;6.30;;;;;;;39.31;26.02;100461.09;3681583;78;99072;-82
2022/08/04 13:26:24;;;;;;;9.58;5.97;;;;;;;39.00;26.19;100458.84;3689214;79;26270;-81
2022/08/04 13:31:28;;;;;;;10.58;5.80;;;;;;;38.82;26.25;100457.06;3678832;79;98915;-84
2022/08/04 13:36:31;;;;;;;10.72;6.70;;;;;;;38.85;26.39;100455.16;3685112;79;98716;-82
2022/08/04 13:41:38;;;;;;;12.18;7.05;;;;;;;38.35;26.29;100461.01;3682689;79;99393;-82
2022/08/04 13:47:11;;;;;;;9.13;6.95;;;;;;;37.86;26.78;100456.72;3672173;79;99007;-82
2022/08/04 13:52:12;;;;;;;11.30;6.43;;;;;;;37.65;26.79;100457.45;3646692;78;98843;-85
2022/08/04 13:57:22;;;;;;;8.70;5.90;;;;;;;37.57;27.19;100450.87;3648439;79;99056;-83
2022/08/04 14:02:52;;;;;;;9.83;6.58;;;;;;;37.31;26.84;100451.02;3637605;79;98528;-84
2022/08/04 14:08:08;;;;;;;9.28;6.42;;;;;;;37.16;27.70;100445.16;3697338;78;26647;-81
2022/08/04 14:13:09;;;;;;;9.50;6.60;;;;;;;37.29;27.65;100435.80;3689630;78;98936;-82
2022/08/04 14:18:27;;;;;;;9.33;6.28;;;;;;;37.15;28.15;100425.73;3712396;77;98595;-85
2022/08/04 14:23:37;;;;;;;9.85;6.40;;;;;;;36.97;27.77;100422.39;3703917;78;98860;-85
2022/08/04 14:28:38;;;;;;;9.15;6.90;;;;;;;36.57;28.44;100423.09;3667602;78;98825;-83
2022/08/04 14:33:42;;;;;;;11.25;6.42;;;;;;;36.54;28.73;100411.30;3657510;79;98891;-79
2022/08/04 14:38:58;;;;;;;9.70;7.10;;;;;;;36.32;28.88;100416.89;3652494;79;26306;-84
2022/08/04 14:44:02;;;;;;;9.45;7.17;;;;;;;36.18;29.19;100416.05;3650772;79;98551;-81
2022/08/04 14:49:12;;;;;;;9.20;6.28;;;;;;;36.08;29.26;100401.36;3628377;79;98720;-82
2022/08/04 14:54:14;;;;;;;9.55;6.92;;;;;;;35.93;29.88;100402.63;3621334;79;98619;-81
2022/08/04 14:59:15;;;;;;;10.48;6.20;;;;;;;35.80;29.92;100408.34;3643259;79;98771;-80
2022/08/04 15:04:17;;;;;;;8.18;6.28;;;;;;;35.78;30.60;100406.70;3644853;79;98980;-83
2022/08/04 15:09:20;;;;;;;10.72;7.35;;;;;;;35.55;30.23;100392.70;3647308;79;98356;-83
2022/08/04 15:14:23;;;;;;;7.85;6.58;;;;;;;35.26;30.45;100391.58;3627293;80;98513;-82
2022/08/04 15:19:24;;;;;;;9.93;7.45;;;;;;;35.00;30.52;100393.71;3646028;79;98624;-83
2022/08/04 15:24:25;;;;;;;8.98;7.30;;;;;;;34.78;31.07;100393.31;3633532;80;98702;-85
2022/08/04 15:29:32;;;;;;;9.88;7.62;;;;;;;34.77;31.17;100393.95;3615545;79;99147;-83
2022/08/04 15:34:48;;;;;;;8.83;6.95;;;;;;;34.45;31.33;100384.59;3604451;80;98766;-80
2022/08/04 15:40:15;;;;;;;9.85;7.47;;;;;;;34.53;31.59;100377.56;3610445;80;99148;-79
2022/08/04 15:45:23;;;;;;;10.88;6.65;;;;;;;34.45;31.61;100374.59;3610842;81;98815;-82
2022/08/04 15:50:24;;;;;;;8.50;7.05;;;;;;;34.16;31.62;100383.31;3544381;81;98701;-80
2022/08/04 15:55:41;;;;;;;10.48;6.62;;;;;;;34.15;31.83;100381.09;3609315;80;98648;-85
2022/08/04 16:00:54;;;;;;;8.58;6.33;;;;;;;34.03;31.97;100378.92;3601604;81;98918;-80
2022/08/04 16:05:55;;;;;;;10.68;6.53;;;;;;;34.00;32.32;100376.48;3608562;81;98728;-83
2022/08/04 16:10:56;;;;;;;10.65;6.55;;;;;;;33.91;32.11;100369.75;3540744;81;99025;-83
2022/08/04 16:15:57;;;;;;;8.28;6.03;;;;;;;33.68;32.22;100370.54;3611533;80;99257;-82
2022/08/04 16:21:03;;;;;;;9.93;7.10;;;;;;;33.46;32.46;100364.42;3613568;80;98893;-83
2022/08/04 16:26:04;;;;;;;9.70;6.70;;;;;;;33.29;32.72;100363.84;3549560;81;26540;-81
2022/08/04 16:31:08;;;;;;;8.25;6.42;;;;;;;33.13;32.75;100365.42;3616877;80;98663;-81
2022/08/04 16:36:11;;;;;;;10.82;7.05;;;;;;;32.91;33.18;100369.92;3638471;79;98851;-80
2022/08/04 16:41:16;;;;;;;10.45;7.00;;;;;;;32.80;33.53;100372.87;3610115;80;99036;-82
2022/08/04 16:46:20;;;;;;;;;;;;;;;32.65;33.60;100375.29;3596585;81;98959;-80
2022/08/04 16:51:27;;;;;;;8.93;5.93;;;;;;;32.38;34.25;100359.95;3623709;79;84849;-81
2022/08/04 16:56:31;;;;;;;10.58;6.70;;;;;;;32.20;34.23;100361.97;3625822;80;25894;-80
2022/08/04 17:01:33;;;;;;;9.98;6.60;;;;;;;32.07;34.52;100364.65;3607177;80;99114;-82
2022/08/04 17:06:38;;;;;;;9.55;7.30;;;;;;;31.93;34.69;100356.45;3602196;80;98948;-80
2022/08/04 17:11:41;;;;;;;10.15;6.60;;;;;;;31.78;34.99;100356.00;3606981;80;98765;-81
2022/08/04 17:16:42;;;;;;;11.25;8.00;;;;;;;31.69;35.22;100351.99;3625492;80;99103;-81
2022/08/04 17:21:44;;;;;;;11.18;6.65;;;;;;;31.58;35.29;100352.03;3594337;81;99052;-81
2022/08/04 17:26:47;;;;;;;12.07;6.70;;;;;;;31.45;35.54;100356.10;3594932;82;25835;-81
2022/08/04 17:31:48;;;;;;;8.60;6.50;;;;;;;31.34;35.81;100356.14;3593742;81;98950;-82
2022/08/04 17:36:49;;;;;;;10.20;6.67;;;;;;;31.25;35.73;100357.20;3603565;80;98644;-81
2022/08/04 17:41:56;;;;;;;8.70;6.58;;;;;;;31.09;35.77;100345.18;3598960;81;99574;-84
2022/08/04 17:46:57;;;;;;;11.35;6.25;;;;;;;30.97;35.88;100342.23;3601200;80;98889;-84
2022/08/04 17:52:00;;;;;;;10.43;6.10;;;;;;;30.66;36.65;100342.50;3591579;80;99179;-83
2022/08/04 17:57:17;;;;;;;9.40;6.92;;;;;;;30.66;36.65;100342.50;3602423;81;99025;-81
2022/08/04 18:02:23;;;;;;;8.93;6.03;;;;;;;30.57;36.51;100350.49;3617640;80;98923;-82
2022/08/04 18:07:37;;;;;;;10.25;6.72;;;;;;;30.47;36.68;100346.34;3558665;81;98602;-81
2022/08/04 18:12:42;;;;;;;9.65;6.85;;;;;;;30.34;36.80;100347.51;3601018;80;98749;-82
2022/08/04 18:17:48;;;;;;;8.60;5.65;;;;;;;30.22;37.06;100351.59;3632118;80;98907;-80
2022/08/04 18:22:49;;;;;;;12.03;7.47;;;;;;;30.10;37.15;100352.84;3557617;81;98873;-81
2022/08/04 18:27:54;;;;;;;12.75;6.55;;;;;;;29.96;37.49;100354.61;3625109;80;99240;-81
2022/08/04 18:32:55;;;;;;;11.75;6.22;;;;;;;29.86;38.02;100353.28;3604964;80;99027;-83
2022/08/04 18:37:56;;;;;;;9.68;6.85;;;;;;;29.74;38.38;100360.21;3623059;81;33519;-83
2022/08/04 18:42:58;;;;;;;12.13;6.87;;;;;;;29.60;38.80;100366.09;3620240;80;99040;-83
2022/08/04 18:47:59;;;;;;;11.15;6.72;;;;;;;29.50;39.62;100366.92;3618125;80;98945;-83
2022/08/04 18:53:01;;;;;;;13.13;6.12;;;;;;;29.39;40.16;100367.49;3616360;81;98982;-84
2022/08/04 18:58:02;;;;;;;9.83;6.70;;;;;;;29.26;40.61;100364.34;3620521;80;99058;-82
2022/08/04 19:03:04;;;;;;;8.53;6.10;;;;;;;29.16;41.32;100372.24;3604955;80;98862;-82
2022/08/04 19:08:05;;;;;;;10.35;6.67;;;;;;;29.06;42.13;100383.66;3639031;80;33962;-83
2022/08/04 19:13:06;;;;;;;11.95;7.47;;;;;;;28.93;42.81;100378.25;3622051;80;98860;-82
2022/08/04 19:18:07;;;;;;;10.35;7.03;;;;;;;28.81;43.86;100382.25;3627710;79;98954;-80
2022/08/04 19:23:08;;;;;;;10.80;6.50;;;;;;;28.70;45.05;100377.29;3639056;79;98974;-81
2022/08/04 19:28:09;;;;;;;10.75;7.10;;;;;;;28.55;45.69;100382.30;3633847;79;98986;-84
2022/08/04 19:33:10;;;;;;;11.90;6.92;;;;;;;28.39;44.95;100382.16;3608208;80;99005;-88
2022/08/04 19:38:11;;;;;;;11.80;6.90;;;;;;;28.21;45.07;100378.98;3617684;80;33681;-83
2022/08/04 19:43:16;;;;;;;8.75;5.90;;;;;;;28.07;45.20;100384.09;3606758;80;98760;-87
2022/08/04 19:48:17;;;;;;;12.17;6.50;;;;;;;27.87;45.40;100375.64;3617598;80;98283;-83
2022/08/04 19:53:18;;;;;;;13.53;6.60;;;;;;;27.75;45.22;100385.87;3616080;80;99488;-82
2022/08/04 19:58:20;;;;;;;11.60;6.03;;;;;;;27.61;45.43;100378.22;3618894;80;99359;-83
2022/08/04 20:03:21;;;;;;;13.40;6.20;;;;;;;27.47;45.19;100381.25;3611044;80;99003;-83
2022/08/04 20:08:25;;;;;;;10.18;6.22;;;;;;;27.32;44.93;100381.17;3669098;79;33874;-82
2022/08/04 20:13:26;;;;;;;8.65;6.30;;;;;;;27.21;45.15;100386.66;3666143;79;98927;-84
2022/08/04 20:18:28;;;;;;;8.85;5.45;;;;;;;27.12;45.23;100389.56;3640681;79;98703;-84
2022/08/04 20:23:29;;;;;;;9.90;6.28;;;;;;;27.03;45.33;100384.81;3672101;79;98868;-86
2022/08/04 20:28:31;;;;;;;11.95;6.50;;;;;;;26.93;45.43;100384.81;3637526;79;98879;-86
2022/08/04 20:33:31;;;;;;;8.95;6.10;;;;;;;26.86;45.57;100383.02;3620726;79;99043;-85
2022/08/04 20:38:33;;;;;;;11.63;6.35;;;;;;;26.79;46.13;100380.57;3666313;79;33442;-88
2022/08/04 20:43:34;;;;;;;13.32;6.55;;;;;;;26.73;46.58;100375.47;3630874;80;98847;-87
2022/08/04 20:48:35;;;;;;;10.45;6.58;;;;;;;26.60;46.53;100376.41;3641708;79;98814;-83
2022/08/04 20:53:36;;;;;;;10.15;6.50;;;;;;;26.51;46.93;100381.50;3638914;79;98999;-86
2022/08/04 20:58:37;;;;;;;10.35;7.08;;;;;;;26.41;47.21;100375.01;3637866;80;98969;-81
2022/08/04 21:08:58;;;;;;;10.25;6.40;;;;;;;26.25;47.66;100378.30;3581590;81;99073;-84
2022/08/04 21:13:59;;;;;;;9.25;6.30;;;;;;;26.19;47.60;100383.06;3625525;80;98814;-91
2022/08/04 21:19:00;;;;;;;13.83;6.60;;;;;;;26.12;47.83;100384.25;3629848;80;98671;-87
2022/08/04 21:24:01;;;;;;;13.60;7.22;;;;;;;26.03;47.87;100389.16;3635646;79;98953;-86
2022/08/04 21:29:02;;;;;;;10.20;6.53;;;;;;;25.97;48.06;100387.66;3653862;79;99307;-86
2022/08/04 21:34:03;;;;;;;10.13;6.08;;;;;;;25.89;48.04;100389.25;3614555;80;98979;-85
2022/08/04 21:39:05;;;;;;;11.78;6.55;;;;;;;25.80;48.41;100387.93;3641282;79;99029;-84
2022/08/04 21:44:08;;;;;;;9.38;6.65;;;;;;;25.74;48.48;100385.63;3597535;81;98371;-84
2022/08/04 21:49:09;;;;;;;12.23;6.55;;;;;;;25.70;48.52;100377.98;3581047;82;98570;-84
2022/08/04 21:54:10;;;;;;;11.38;6.80;;;;;;;25.65;48.87;100382.08;3594163;81;98978;-84
2022/08/04 21:59:12;;;;;;;9.10;6.42;;;;;;;25.59;48.83;100382.59;3587717;81;99020;-86
2022/08/04 22:04:13;;;;;;;11.85;6.87;;;;;;;25.53;48.90;100379.67;3596061;80;98730;-85
2022/08/04 22:09:13;;;;;;;9.43;6.53;;;;;;;25.51;49.12;100382.17;3592565;82;99347;-83
2022/08/04 22:14:15;;;;;;;9.03;5.80;;;;;;;25.47;49.16;100387.84;3587121;80;98531;-81
2022/08/04 22:19:16;;;;;;;10.40;6.10;;;;;;;25.43;49.33;100374.55;3584139;81;98604;-84
2022/08/04 22:24:17;;;;;;;10.03;6.22;;;;;;;25.38;49.21;100373.19;3542605;82;98790;-83
2022/08/04 22:29:18;;;;;;;11.30;6.40;;;;;;;25.34;49.14;100372.58;3540951;81;99009;-83
2022/08/04 22:34:19;;;;;;;9.60;6.12;;;;;;;25.28;49.19;100356.83;3547896;82;98438;-83
2022/08/04 22:39:21;;;;;;;10.30;5.83;;;;;;;25.23;49.31;100363.84;3548109;82;98802;-85
2022/08/04 22:44:21;;;;;;;10.20;6.20;;;;;;;25.19;49.49;100364.67;3540787;82;98528;-87
2022/08/04 22:49:23;;;;;;;13.08;6.87;;;;;;;25.13;49.70;100363.73;3584819;80;98878;-84
2022/08/04 22:54:24;;;;;;;10.45;6.03;;;;;;;25.07;49.83;100361.43;3585062;81;98815;-82
2022/08/04 22:59:25;;;;;;;9.58;6.50;;;;;;;25.03;50.09;100365.69;3599775;80;98996;-84
2022/08/04 23:04:28;;;;;;;11.73;6.37;;;;;;;24.97;50.45;100363.37;3599933;81;98827;-87
2022/08/04 23:09:29;;;;;;;11.68;6.78;;;;;;;24.90;50.40;100365.13;3543270;82;98941;-83
2022/08/04 23:14:31;;;;;;;12.70;7.10;;;;;;;24.81;50.68;100351.08;3605317;80;98522;-82
2022/08/04 23:19:32;;;;;;;9.70;6.22;;;;;;;24.78;51.00;100349.20;3619055;80;98832;-86
2022/08/04 23:24:35;;;;;;;13.00;6.83;;;;;;;24.72;51.37;100350.49;3613006;80;98661;-84
2022/08/04 23:29:36;;;;;;;8.88;6.90;;;;;;;24.66;51.31;100353.02;3616899;80;99053;-87
2022/08/04 23:34:36;;;;;;;12.30;6.42;;;;;;;24.59;51.49;100342.09;3611534;80;98777;-85
2022/08/04 23:39:38;;;;;;;10.25;6.50;;;;;;;24.50;51.66;100347.72;3587170;80;98860;-84
2022/08/04 23:44:39;;;;;;;9.60;6.25;;;;;;;24.45;52.23;100347.73;3584427;80;98910;-85
2022/08/04 23:49:40;;;;;;;9.85;6.30;;;;;;;24.36;52.09;100342.77;3612806;80;98660;-84
2022/08/04 23:54:41;;;;;;;11.03;6.97;;;;;;;24.27;52.33;100344.98;3603452;80;98676;-82
2022/08/04 23:59:42;;;;;;;9.03;6.35;;;;;;;24.22;52.37;100346.22;3614690;80;98984;-83
